Terminal Aerodrome Forecast
Issued by NWS Charleston, WV

Current Version | Previous Version | Graphics & Text | Print | Product List | Glossary On
Versions: 1 2 3 4 5 6 7 8 9 10 11 12 13 14 15 16 17 18 19 20 21 22 23 24 25 26
000
FTUS41 KRLX 260849 AAA
TAFEKN
TAF AMD
KEKN 260849Z 2609/2706 00000KT 3/4SM BR BKN003
     FM261200 00000KT 6SM BR SCT050
     FM261300 00000KT P6SM SCT045
     FM261800 VRB03KT P6SM VCTS BKN070CB=

USA.gov is the U.S. government's official web portal to all federal, state and local government web resources and services.